Sea Storm — WDC7865 — position and weather

sailwx.info

Track history (hours):
 
Tides and Currents Weather Stations Pressure Air Temp Water Temp Dewpoint Dewpoint Depression Visibility Wind Speed Wind Dir Waves Ship Positions

Sea Storm

Owner: Sea Storm Fisheries, Inc, Seattle, WA. More information available from US FCC via Universal Licensing System and Coast Guard Vessel Documentation Center.

Last reported at 2017-Oct-14 23:58 UTC. Time now 2017-Oct-17 17:04 UTC.
Position N 43°55' W 124°55'.

MMSI: 367078118.

Date/timePositionNaut miles runAvg speedWind from/ knotsBaromVisibWave heightAir tempDewpointWater temp
2017-Oct-14 23:58N 43°55' W 124°55'1 2.5
2017-Oct-14 23:30N 43°56' W 124°57'15 9.4
2017-Oct-14 21:55N 44°10' W 124°56'510.9
2017-Oct-14 21:28N 44°15' W 124°54'511.0
2017-Oct-14 21:01N 44°20' W 124°51'611.4
2017-Oct-14 20:30N 44°25' W 124°48'5 8.0
2017-Oct-14 19:56N 44°30' W 124°47'1 2.3
2017-Oct-14 19:30N 44°30' W 124°47'2 4.8
2017-Oct-14 19:00N 44°28' W 124°46'4 8.7
2017-Oct-14 18:30N 44°32' W 124°44'2 3.6
2017-Oct-14 17:58N 44°34' W 124°43'4 7.5
2017-Oct-14 17:28N 44°31' W 124°45'  
2017-Oct-06 16:34N 44°37' W 124°04'111.4
2017-Oct-06 16:30N 44°36' W 124°05'710.3
2017-Oct-06 15:52N 44°30' W 124°09'410.6
2017-Oct-06 15:30N 44°27' W 124°11'910.7
2017-Oct-06 14:42N 44°19' W 124°15'522.1
2017-Oct-06 14:27N 44°14' W 124°18'1 1.3
2017-Oct-06 14:01N 44°13' W 124°19'2 4.6
2017-Oct-06 13:30N 44°11' W 124°20'5 9.6
2017-Oct-06 13:00N 44°07' W 124°22'2 3.5
2017-Oct-06 12:31N 44°05' W 124°23'7 3.6
2017-Oct-06 10:32N 43°58' W 124°27'0 6.8
2017-Oct-06 10:29N 43°58' W 124°27'4 6.9
2017-Oct-06 09:57N 43°55' W 124°29'3 6.9
2017-Oct-06 09:30N 43°52' W 124°31'3 6.9
2017-Oct-06 09:00N 43°49' W 124°32'3 6.9
2017-Oct-06 08:30N 43°45' W 124°34'3 6.9
2017-Oct-06 08:00N 43°42' W 124°36'3 6.5
2017-Oct-06 07:31N 43°39' W 124°37'3 5.4
2017-Oct-06 07:01N 43°37' W 124°39'3 5.4
2017-Oct-06 06:30N 43°34' W 124°40'3 5.3
2017-Oct-06 06:01N 43°32' W 124°42'3 5.2
2017-Oct-06 05:30N 43°29' W 124°43'1 1.3
2017-Oct-06 05:00N 43°30' W 124°43'1 1.3
2017-Oct-06 04:30N 43°31' W 124°42'1 1.4
2017-Oct-06 04:01N 43°31' W 124°42'1 1.4
2017-Oct-06 03:30N 43°32' W 124°42'1 1.4
2017-Oct-06 03:00N 43°33' W 124°42'1 1.5
2017-Oct-06 02:31N 43°33' W 124°41'1 1.7
2017-Oct-06 02:01N 43°34' W 124°41'1 1.7
2017-Oct-06 01:29N 43°35' W 124°41'1 1.7
2017-Oct-06 00:46N 43°36' W 124°41'0 1.7
2017-Oct-06 00:30N 43°37' W 124°41'1 1.7
2017-Oct-06 00:00N 43°37' W 124°41'1 1.5
2017-Oct-05 23:30N 43°38' W 124°41'1 1.4
2017-Oct-05 22:56N 43°38' W 124°40'1 0.1
2017-Oct-05 12:28N 43°39' W 124°40'2 2.9
2017-Oct-05 11:51N 43°37' W 124°40'1 2.9
2017-Oct-05 11:28N 43°36' W 124°40'2 2.9
2017-Oct-05 10:51N 43°34' W 124°40'1 3.0
2017-Oct-05 10:30N 43°33' W 124°40'1 3.0
2017-Oct-05 10:00N 43°31' W 124°40'2 3.0
2017-Oct-05 09:30N 43°30' W 124°41'2 3.6
2017-Oct-05 09:01N 43°28' W 124°41'4 7.7
2017-Oct-05 08:28N 43°32' W 124°41'1 1.6
2017-Oct-05 07:48N 43°31' W 124°41'1 2.2
2017-Oct-05 07:31N 43°31' W 124°42'1 2.2
2017-Oct-05 07:01N 43°30' W 124°42'10 2.4
2017-Oct-05 02:58N 43°39' W 124°40'1 1.3
2017-Oct-05 02:31N 43°39' W 124°39'1 2.8
2017-Oct-05 02:01N 43°37' W 124°39'2 3.0
2017-Oct-05 01:31N 43°36' W 124°39'  
Track history (hours):
 
Tides and Currents Weather Stations Pressure Air Temp Water Temp Dewpoint Dewpoint Depression Visibility Wind Speed Wind Dir Waves Ship Positions

Sea Storm

Owner: Sea Storm Fisheries, Inc, Seattle, WA. More information available from US FCC via Universal Licensing System and Coast Guard Vessel Documentation Center.

Last reported at 2017-Oct-14 23:58 UTC. Time now 2017-Oct-17 17:04 UTC.
Position N 43°55' W 124°55'.

MMSI: 367078118.

Date/timePositionNaut miles runAvg speedWind from/ knotsBaromVisibWave heightAir tempDewpointWater temp
2017-Oct-14 23:58N 43°55' W 124°55'1 2.5
2017-Oct-14 23:30N 43°56' W 124°57'15 9.4
2017-Oct-14 21:55N 44°10' W 124°56'510.9
2017-Oct-14 21:28N 44°15' W 124°54'511.0
2017-Oct-14 21:01N 44°20' W 124°51'611.4
2017-Oct-14 20:30N 44°25' W 124°48'5 8.0
2017-Oct-14 19:56N 44°30' W 124°47'1 2.3
2017-Oct-14 19:30N 44°30' W 124°47'2 4.8
2017-Oct-14 19:00N 44°28' W 124°46'4 8.7
2017-Oct-14 18:30N 44°32' W 124°44'2 3.6
2017-Oct-14 17:58N 44°34' W 124°43'4 7.5
2017-Oct-14 17:28N 44°31' W 124°45'  
2017-Oct-06 16:34N 44°37' W 124°04'111.4
2017-Oct-06 16:30N 44°36' W 124°05'710.3
2017-Oct-06 15:52N 44°30' W 124°09'410.6
2017-Oct-06 15:30N 44°27' W 124°11'910.7
2017-Oct-06 14:42N 44°19' W 124°15'522.1
2017-Oct-06 14:27N 44°14' W 124°18'1 1.3
2017-Oct-06 14:01N 44°13' W 124°19'2 4.6
2017-Oct-06 13:30N 44°11' W 124°20'5 9.6
2017-Oct-06 13:00N 44°07' W 124°22'2 3.5
2017-Oct-06 12:31N 44°05' W 124°23'7 3.6
2017-Oct-06 10:32N 43°58' W 124°27'0 6.8
2017-Oct-06 10:29N 43°58' W 124°27'4 6.9
2017-Oct-06 09:57N 43°55' W 124°29'3 6.9
2017-Oct-06 09:30N 43°52' W 124°31'3 6.9
2017-Oct-06 09:00N 43°49' W 124°32'3 6.9
2017-Oct-06 08:30N 43°45' W 124°34'3 6.9
2017-Oct-06 08:00N 43°42' W 124°36'3 6.5
2017-Oct-06 07:31N 43°39' W 124°37'3 5.4
2017-Oct-06 07:01N 43°37' W 124°39'3 5.4
2017-Oct-06 06:30N 43°34' W 124°40'3 5.3
2017-Oct-06 06:01N 43°32' W 124°42'3 5.2
2017-Oct-06 05:30N 43°29' W 124°43'1 1.3
2017-Oct-06 05:00N 43°30' W 124°43'1 1.3
2017-Oct-06 04:30N 43°31' W 124°42'1 1.4
2017-Oct-06 04:01N 43°31' W 124°42'1 1.4
2017-Oct-06 03:30N 43°32' W 124°42'1 1.4
2017-Oct-06 03:00N 43°33' W 124°42'1 1.5
2017-Oct-06 02:31N 43°33' W 124°41'1 1.7
2017-Oct-06 02:01N 43°34' W 124°41'1 1.7
2017-Oct-06 01:29N 43°35' W 124°41'1 1.7
2017-Oct-06 00:46N 43°36' W 124°41'0 1.7
2017-Oct-06 00:30N 43°37' W 124°41'1 1.7
2017-Oct-06 00:00N 43°37' W 124°41'1 1.5
2017-Oct-05 23:30N 43°38' W 124°41'1 1.4
2017-Oct-05 22:56N 43°38' W 124°40'1 0.1
2017-Oct-05 12:28N 43°39' W 124°40'2 2.9
2017-Oct-05 11:51N 43°37' W 124°40'1 2.9
2017-Oct-05 11:28N 43°36' W 124°40'2 2.9
2017-Oct-05 10:51N 43°34' W 124°40'1 3.0
2017-Oct-05 10:30N 43°33' W 124°40'1 3.0
2017-Oct-05 10:00N 43°31' W 124°40'2 3.0
2017-Oct-05 09:30N 43°30' W 124°41'2 3.6
2017-Oct-05 09:01N 43°28' W 124°41'4 7.7
2017-Oct-05 08:28N 43°32' W 124°41'1 1.6
2017-Oct-05 07:48N 43°31' W 124°41'1 2.2
2017-Oct-05 07:31N 43°31' W 124°42'1 2.2
2017-Oct-05 07:01N 43°30' W 124°42'10 2.4
2017-Oct-05 02:58N 43°39' W 124°40'1 1.3
2017-Oct-05 02:31N 43°39' W 124°39'1 2.8
2017-Oct-05 02:01N 43°37' W 124°39'2 3.0
2017-Oct-05 01:31N 43°36' W 124°39'  

Dump ship's entire track history